Time;durP1;ratioP1;P1;durP2;ratioP2;P2;SDS_P1;SDS_P2;PMS_P1;PMS_P2;Temp;Humidity;BMP_temperature;BMP_pressure;BME280_temperature;BME280_humidity;BME280_pressure;Samples;Min_cycle;Max_cycle;Signal;HPM_P1;HPM_P2
2022/07/26 00:01:57;;;;;;;0.40;0.40;;;20.30;82.90;;;;;;5033458;28;20403;-69
2022/07/26 00:04:23;;;;;;;0.60;0.43;;;20.40;83.70;;;;;;5033640;28;20416;-70
2022/07/26 00:06:49;;;;;;;0.60;0.50;;;20.40;86.60;;;;;;5033358;28;20618;-69
2022/07/26 00:09:14;;;;;;;0.50;0.50;;;20.40;86.50;;;;;;5033465;28;20174;-70
2022/07/26 00:11:40;;;;;;;0.53;0.50;;;20.40;84.30;;;;;;5033272;28;20170;-70
2022/07/26 00:14:07;;;;;;;0.50;0.50;;;20.50;83.00;;;;;;5033314;28;20178;-70
2022/07/26 00:16:33;;;;;;;0.60;0.60;;;20.50;85.60;;;;;;5033237;28;20432;-69
2022/07/26 00:18:59;;;;;;;0.60;0.60;;;20.60;85.20;;;;;;5033240;28;20417;-69
2022/07/26 00:21:25;;;;;;;0.60;0.60;;;20.60;86.80;;;;;;5033279;28;20741;-69
2022/07/26 00:23:51;;;;;;;1.80;1.70;;;20.60;89.50;;;;;;5033194;28;20221;-69
2022/07/26 00:26:18;;;;;;;0.43;0.43;;;20.60;90.10;;;;;;5033216;28;20202;-69
2022/07/26 00:28:43;;;;;;;0.60;0.60;;;20.60;90.00;;;;;;5033090;28;20410;-69
2022/07/26 00:31:11;;;;;;;0.47;0.47;;;20.60;88.20;;;;;;5033144;28;20957;-69
2022/07/26 00:33:38;;;;;;;0.97;0.40;;;20.60;86.40;;;;;;5033030;28;20504;-69
2022/07/26 00:36:03;;;;;;;0.40;0.40;;;20.70;88.10;;;;;;5033116;28;20462;-69
2022/07/26 00:38:29;;;;;;;1.00;1.00;;;20.70;88.80;;;;;;5032570;28;20547;-68
2022/07/26 00:40:55;;;;;;;0.30;0.30;;;20.70;90.30;;;;;;5032126;28;20413;-69
2022/07/26 00:43:21;;;;;;;0.40;0.40;;;20.70;90.40;;;;;;5031773;28;20186;-69
2022/07/26 00:45:46;;;;;;;0.67;0.60;;;20.70;90.30;;;;;;5032963;28;20453;-70
2022/07/26 00:48:12;;;;;;;0.30;0.30;;;20.70;89.00;;;;;;5032951;28;20194;-70
2022/07/26 00:50:38;;;;;;;0.77;0.60;;;20.70;89.70;;;;;;5033100;28;20173;-70
2022/07/26 00:53:03;;;;;;;0.40;0.40;;;20.60;90.50;;;;;;5032769;28;20261;-69
2022/07/26 00:55:29;;;;;;;0.60;0.57;;;20.60;91.30;;;;;;5033165;28;20205;-69
2022/07/26 00:57:55;;;;;;;1.60;0.80;;;20.50;90.30;;;;;;5032861;28;20278;-70
2022/07/26 01:00:26;;;;;;;1.80;0.60;;;20.60;90.40;;;;;;5033398;28;20415;-69
2022/07/26 01:02:53;;;;;;;0.40;0.40;;;20.50;90.40;;;;;;5036459;28;20178;-69
2022/07/26 01:05:19;;;;;;;0.40;0.40;;;20.50;90.60;;;;;;5036480;28;20447;-70
2022/07/26 01:07:45;;;;;;;0.50;0.50;;;20.60;90.50;;;;;;5036294;28;20432;-70
2022/07/26 01:10:11;;;;;;;0.37;0.37;;;20.60;90.40;;;;;;5036364;28;20417;-69
2022/07/26 01:12:43;;;;;;;0.40;0.40;;;20.70;90.40;;;;;;5036600;28;20420;-70
2022/07/26 01:15:11;;;;;;;0.40;0.40;;;20.60;90.80;;;;;;5036310;28;20202;-69
2022/07/26 01:17:37;;;;;;;0.30;0.30;;;20.70;90.40;;;;;;5036150;28;20944;-70
2022/07/26 01:20:04;;;;;;;0.47;0.47;;;20.70;90.80;;;;;;5036309;28;20893;-69
2022/07/26 01:22:29;;;;;;;0.40;0.40;;;20.70;89.70;;;;;;5035987;28;20446;-70
2022/07/26 01:24:55;;;;;;;0.97;0.87;;;20.80;89.80;;;;;;5036219;28;20436;-70
2022/07/26 01:27:21;;;;;;;0.80;0.77;;;20.70;89.80;;;;;;5035925;28;20698;-70
2022/07/26 01:29:46;;;;;;;0.40;0.40;;;20.80;89.10;;;;;;5035983;28;20265;-70
2022/07/26 01:32:13;;;;;;;0.93;0.93;;;20.80;87.10;;;;;;5018013;28;20329;-69
2022/07/26 01:34:39;;;;;;;1.13;1.13;;;20.80;88.70;;;;;;5036015;28;20177;-69
2022/07/26 01:37:04;;;;;;;0.40;0.40;;;20.80;89.50;;;;;;5035805;28;20452;-70
2022/07/26 01:39:30;;;;;;;0.60;0.50;;;20.70;89.80;;;;;;5035947;28;20219;-70
2022/07/26 01:41:56;;;;;;;0.47;0.47;;;20.60;89.90;;;;;;5035639;28;20256;-70
2022/07/26 01:44:22;;;;;;;1.30;1.20;;;20.60;89.90;;;;;;5035909;28;20604;-70
2022/07/26 01:46:48;;;;;;;0.30;0.30;;;20.60;90.30;;;;;;5035528;28;20210;-69
2022/07/26 01:49:14;;;;;;;0.40;0.40;;;20.60;90.70;;;;;;5017849;28;20425;-70
2022/07/26 01:51:39;;;;;;;0.40;0.40;;;20.60;90.00;;;;;;5035754;28;20408;-70
2022/07/26 01:54:05;;;;;;;1.40;1.27;;;20.60;90.00;;;;;;5035290;28;20638;-69
2022/07/26 01:56:31;;;;;;;0.90;0.87;;;20.50;89.20;;;;;;5035431;28;20196;-69
2022/07/26 01:58:57;;;;;;;0.60;0.60;;;20.40;88.60;;;;;;5035456;28;20197;-69
2022/07/26 02:01:23;;;;;;;1.70;1.60;;;20.50;89.40;;;;;;5035509;28;21000;-69
2022/07/26 02:03:48;;;;;;;0.60;0.60;;;20.50;90.10;;;;;;5035329;28;20178;-69
2022/07/26 02:06:14;;;;;;;0.40;0.40;;;20.50;90.10;;;;;;5035382;28;20262;-69
2022/07/26 02:08:39;;;;;;;0.40;0.40;;;20.40;90.20;;;;;;5035251;28;20646;-70
2022/07/26 02:11:05;;;;;;;0.90;0.70;;;20.40;90.30;;;;;;5017446;28;20641;-69
2022/07/26 02:13:37;;;;;;;0.70;0.50;;;20.50;90.40;;;;;;5034346;28;20249;-69
2022/07/26 02:16:05;;;;;;;0.57;0.57;;;20.50;91.00;;;;;;5035199;28;20181;-70
2022/07/26 02:18:30;;;;;;;0.50;0.50;;;20.40;91.00;;;;;;5035161;28;20417;-69
2022/07/26 02:20:58;;;;;;;0.57;0.57;;;20.50;91.20;;;;;;5035118;28;20425;-69
2022/07/26 02:23:25;;;;;;;1.20;0.93;;;20.40;91.20;;;;;;5034909;28;20177;-70
2022/07/26 02:25:51;;;;;;;0.60;0.60;;;20.50;91.40;;;;;;5034891;28;20984;-70
2022/07/26 02:28:17;;;;;;;0.40;0.40;;;20.40;92.20;;;;;;5034812;28;20506;-70
2022/07/26 02:30:43;;;;;;;0.60;0.60;;;20.50;92.50;;;;;;5017166;28;20448;-69
2022/07/26 02:33:09;;;;;;;0.90;0.77;;;20.50;92.40;;;;;;5034640;28;20212;-69
2022/07/26 02:35:35;;;;;;;0.60;0.60;;;20.40;92.50;;;;;;5034753;28;20448;-68
2022/07/26 02:38:04;;;;;;;0.37;0.37;;;20.40;92.70;;;;;;5034636;28;20203;-69
2022/07/26 02:40:30;;;;;;;0.50;0.40;;;20.30;93.30;;;;;;5034677;28;20420;-70
2022/07/26 02:42:55;;;;;;;0.50;0.50;;;20.20;93.90;;;;;;5034389;28;20420;-69
2022/07/26 02:45:21;;;;;;;1.07;0.50;;;20.20;93.80;;;;;;5034820;28;20430;-69
2022/07/26 02:47:48;;;;;;;0.60;0.60;;;20.20;94.10;;;;;;5034632;28;20654;-70
2022/07/26 02:50:18;;;;;;;0.40;0.40;;;20.10;94.30;;;;;;5034453;28;20175;-69
2022/07/26 02:52:47;;;;;;;0.30;0.30;;;20.10;94.60;;;;;;5034279;28;20463;-69
2022/07/26 02:55:14;;;;;;;0.50;0.50;;;20.10;95.10;;;;;;5034446;28;20434;-69
2022/07/26 02:57:40;;;;;;;0.50;0.50;;;20.10;95.20;;;;;;5034341;28;20470;-69
2022/07/26 03:00:08;;;;;;;0.50;0.50;;;20.10;95.40;;;;;;5034419;28;20412;-69
2022/07/26 03:02:34;;;;;;;0.60;0.50;;;20.00;95.60;;;;;;5034195;28;20174;-69
2022/07/26 03:05:01;;;;;;;0.80;0.70;;;20.00;96.00;;;;;;5034164;28;20425;-69
2022/07/26 03:07:27;;;;;;;0.30;0.30;;;20.00;96.20;;;;;;5033984;28;20467;-70
2022/07/26 03:09:53;;;;;;;0.60;0.53;;;20.00;96.50;;;;;;5034184;28;20402;-69
2022/07/26 03:12:18;;;;;;;0.40;0.40;;;20.00;96.40;;;;;;5034109;28;20820;-69
2022/07/26 03:14:44;;;;;;;0.40;0.40;;;20.00;96.50;;;;;;5034279;28;20226;-69
2022/07/26 03:17:10;;;;;;;0.60;0.60;;;19.90;96.60;;;;;;5033892;28;20205;-69
2022/07/26 03:19:35;;;;;;;1.30;0.70;;;19.90;96.70;;;;;;5033955;28;20179;-70
2022/07/26 03:22:01;;;;;;;0.50;0.50;;;19.90;97.10;;;;;;5033997;28;20709;-69
2022/07/26 03:24:26;;;;;;;0.40;0.40;;;19.90;97.20;;;;;;5034106;28;20669;-69
2022/07/26 03:26:52;;;;;;;0.40;0.40;;;20.00;97.40;;;;;;5033685;28;20588;-69
2022/07/26 03:29:18;;;;;;;0.50;0.50;;;19.90;97.50;;;;;;5033972;28;20176;-69
2022/07/26 03:31:43;;;;;;;0.40;0.40;;;19.90;97.70;;;;;;5016061;28;20184;-70
2022/07/26 03:34:09;;;;;;;0.40;0.40;;;19.80;97.80;;;;;;5033509;28;20174;-70
2022/07/26 03:36:35;;;;;;;0.70;0.70;;;19.80;97.80;;;;;;5033480;28;20275;-69
2022/07/26 03:39:00;;;;;;;0.40;0.40;;;19.80;98.00;;;;;;5033698;28;20184;-68
2022/07/26 03:41:26;;;;;;;0.60;0.60;;;19.80;98.30;;;;;;5033752;28;20175;-70
2022/07/26 03:43:52;;;;;;;0.73;0.70;;;19.80;98.10;;;;;;5033639;28;20881;-69
2022/07/26 03:46:18;;;;;;;0.53;0.53;;;19.70;98.30;;;;;;5033607;28;20203;-69
2022/07/26 03:48:43;;;;;;;0.40;0.40;;;19.60;98.80;;;;;;5033512;28;20181;-69
2022/07/26 03:51:09;;;;;;;0.50;0.50;;;19.60;98.90;;;;;;5033550;28;20177;-69
2022/07/26 03:53:34;;;;;;;0.40;0.40;;;19.60;98.90;;;;;;5033366;28;20174;-68
2022/07/26 03:58:44;;;;;;;0.40;0.40;;;19.70;99.00;;;;;;5033599;28;20212;-69
2022/07/26 04:01:10;;;;;;;0.73;0.73;;;19.60;99.20;;;;;;5033603;28;20447;-69
2022/07/26 04:03:35;;;;;;;0.40;0.40;;;19.60;99.30;;;;;;5033231;28;20187;-70
2022/07/26 04:06:01;;;;;;;0.40;0.40;;;19.60;99.40;;;;;;5033331;28;20211;-69
2022/07/26 04:08:27;;;;;;;0.30;0.30;;;19.50;99.40;;;;;;5033324;28;20615;-70
2022/07/26 04:10:52;;;;;;;0.40;0.40;;;19.40;99.60;;;;;;5033532;28;20182;-69
2022/07/26 04:13:19;;;;;;;0.50;0.47;;;19.30;99.70;;;;;;5033183;28;20261;-70
2022/07/26 04:15:45;;;;;;;0.43;0.43;;;19.30;99.80;;;;;;5033470;28;20247;-70
2022/07/26 04:18:13;;;;;;;0.60;0.53;;;19.20;99.90;;;;;;5033296;28;20492;-69
2022/07/26 04:20:38;;;;;;;0.40;0.40;;;19.20;99.90;;;;;;5033322;28;20899;-69
2022/07/26 04:23:04;;;;;;;0.60;0.60;;;19.20;99.90;;;;;;5033294;28;20536;-69
2022/07/26 04:25:30;;;;;;;0.40;0.40;;;19.20;99.90;;;;;;5033381;28;20203;-69
2022/07/26 04:27:55;;;;;;;0.50;0.50;;;19.30;99.90;;;;;;5033396;28;20198;-69
2022/07/26 04:30:21;;;;;;;0.40;0.40;;;19.40;99.90;;;;;;5033151;28;20180;-69
2022/07/26 04:32:46;;;;;;;2.20;0.60;;;19.40;99.90;;;;;;5032960;28;20692;-69
2022/07/26 04:35:12;;;;;;;0.40;0.40;;;19.40;99.90;;;;;;5033622;28;20217;-70
2022/07/26 04:37:40;;;;;;;0.40;0.40;;;19.40;99.90;;;;;;5036809;28;20224;-69
2022/07/26 04:40:07;;;;;;;0.43;0.40;;;19.50;99.90;;;;;;5037086;28;20481;-69
2022/07/26 04:42:33;;;;;;;0.40;0.40;;;19.60;99.90;;;;;;5036827;28;20962;-69
2022/07/26 04:44:58;;;;;;;0.30;0.30;;;19.70;99.90;;;;;;5036825;28;20499;-69
2022/07/26 04:47:24;;;;;;;0.40;0.40;;;19.70;99.70;;;;;;5036679;28;20204;-69
2022/07/26 04:49:49;;;;;;;0.40;0.40;;;19.70;99.90;;;;;;5036828;28;20172;-69
2022/07/26 04:52:15;;;;;;;0.73;0.50;;;19.70;99.70;;;;;;5036878;28;20183;-69
2022/07/26 04:54:41;;;;;;;0.80;0.80;;;19.80;99.80;;;;;;5036825;28;20171;-69
2022/07/26 04:57:06;;;;;;;0.50;0.50;;;19.80;99.80;;;;;;5036758;28;20611;-69
2022/07/26 04:59:32;;;;;;;0.40;0.40;;;20.00;99.50;;;;;;5036559;28;20177;-70
2022/07/26 05:01:58;;;;;;;0.40;0.40;;;20.00;99.20;;;;;;5036398;28;20603;-69
2022/07/26 05:04:23;;;;;;;0.60;0.60;;;20.00;99.20;;;;;;5036601;28;20562;-70
2022/07/26 05:06:49;;;;;;;0.40;0.40;;;20.00;98.90;;;;;;5036238;28;20212;-69
2022/07/26 05:09:14;;;;;;;0.40;0.40;;;20.10;99.20;;;;;;5036336;28;20175;-70
2022/07/26 05:11:40;;;;;;;0.67;0.67;;;20.20;99.10;;;;;;5036423;28;20183;-69
2022/07/26 05:14:06;;;;;;;0.40;0.40;;;20.20;98.60;;;;;;5035971;28;20206;-69
2022/07/26 05:16:31;;;;;;;0.43;0.40;;;20.30;98.50;;;;;;5036128;28;20192;-70
2022/07/26 05:18:57;;;;;;;0.60;0.60;;;20.20;98.50;;;;;;5036061;28;20209;-69
2022/07/26 05:21:23;;;;;;;2.67;2.50;;;20.20;98.80;;;;;;5036329;28;20178;-68
2022/07/26 05:23:48;;;;;;;0.40;0.40;;;20.20;98.60;;;;;;5036087;28;20753;-70
2022/07/26 05:26:14;;;;;;;0.50;0.50;;;20.20;98.60;;;;;;5036005;28;20208;-69
2022/07/26 05:28:39;;;;;;;0.40;0.40;;;20.30;98.40;;;;;;5035921;28;20199;-69
2022/07/26 05:31:05;;;;;;;0.40;0.40;;;20.40;98.00;;;;;;5035870;28;20260;-69
2022/07/26 05:33:31;;;;;;;0.50;0.50;;;20.50;97.70;;;;;;5035850;28;20170;-70
2022/07/26 05:35:56;;;;;;;0.47;0.47;;;20.50;98.20;;;;;;5035710;28;20181;-70
2022/07/26 05:38:24;;;;;;;0.30;0.30;;;20.60;98.40;;;;;;5035601;28;20229;-69
2022/07/26 05:40:50;;;;;;;0.40;0.40;;;20.60;98.00;;;;;;5036237;28;20627;-69
2022/07/26 05:43:15;;;;;;;0.40;0.40;;;20.80;97.50;;;;;;5035534;28;20417;-70
2022/07/26 05:45:41;;;;;;;0.47;0.47;;;20.90;97.30;;;;;;5035677;28;20193;-69
2022/07/26 05:48:07;;;;;;;0.40;0.40;;;20.90;96.90;;;;;;5034472;28;20681;-70
2022/07/26 05:50:32;;;;;;;1.23;0.60;;;20.90;96.90;;;;;;5035502;28;20171;-69
2022/07/26 05:52:58;;;;;;;0.50;0.50;;;21.00;97.10;;;;;;5035439;28;20249;-70
2022/07/26 05:55:24;;;;;;;0.63;0.63;;;20.80;96.60;;;;;;5035689;28;20175;-69
2022/07/26 05:57:49;;;;;;;0.63;0.63;;;20.70;97.10;;;;;;5035474;28;20211;-69
2022/07/26 06:00:15;;;;;;;1.37;0.70;;;20.40;96.80;;;;;;5035697;28;20264;-69
2022/07/26 06:02:41;;;;;;;0.83;0.83;;;20.50;97.40;;;;;;5035490;28;20530;-70
2022/07/26 06:05:07;;;;;;;0.50;0.50;;;20.80;97.10;;;;;;5035453;28;20413;-69
2022/07/26 06:07:33;;;;;;;1.00;0.50;;;21.00;97.00;;;;;;5035466;28;20209;-69
2022/07/26 06:09:59;;;;;;;0.83;0.63;;;21.30;96.40;;;;;;5035430;28;20444;-70
2022/07/26 06:12:25;;;;;;;0.40;0.40;;;21.50;96.00;;;;;;5035156;28;20441;-69
2022/07/26 06:14:50;;;;;;;0.60;0.60;;;21.50;95.20;;;;;;5035395;28;20171;-70
2022/07/26 06:17:16;;;;;;;0.67;0.50;;;21.30;95.10;;;;;;5035048;28;20201;-69
2022/07/26 06:19:42;;;;;;;0.50;0.50;;;21.50;95.70;;;;;;5035169;28;20541;-70
2022/07/26 06:22:07;;;;;;;0.50;0.50;;;21.60;95.60;;;;;;5034978;28;20177;-70
2022/07/26 06:24:33;;;;;;;0.43;0.43;;;21.60;95.20;;;;;;5035050;28;20185;-69
2022/07/26 06:26:59;;;;;;;0.53;0.53;;;21.40;95.50;;;;;;5034815;28;20220;-69
2022/07/26 06:29:24;;;;;;;0.60;0.53;;;21.30;95.50;;;;;;5034930;28;20170;-69
2022/07/26 06:31:50;;;;;;;0.70;0.70;;;21.30;95.90;;;;;;5034640;28;20175;-69
2022/07/26 06:34:16;;;;;;;0.50;0.50;;;21.10;96.50;;;;;;5034960;28;20178;-69
2022/07/26 06:36:42;;;;;;;0.43;0.43;;;21.10;96.50;;;;;;5034649;28;20194;-70
2022/07/26 06:39:08;;;;;;;0.43;0.43;;;20.90;96.50;;;;;;5034809;28;20686;-70
2022/07/26 06:41:33;;;;;;;0.60;0.60;;;20.80;96.40;;;;;;5034804;28;20226;-69
2022/07/26 06:43:59;;;;;;;0.70;0.70;;;21.10;96.90;;;;;;5034484;28;20504;-69
2022/07/26 06:46:25;;;;;;;0.43;0.40;;;21.70;96.70;;;;;;5034638;28;20307;-69
2022/07/26 06:48:50;;;;;;;0.30;0.30;;;22.40;95.20;;;;;;5034857;28;20163;-70
2022/07/26 06:51:16;;;;;;;0.30;0.30;;;23.30;93.90;;;;;;5031912;28;20176;-70
2022/07/26 06:53:42;;;;;;;0.40;0.40;;;24.30;91.60;;;;;;5032210;28;20241;-70
2022/07/26 06:56:07;;;;;;;0.40;0.40;;;24.80;90.10;;;;;;5032966;28;20209;-70
2022/07/26 06:58:33;;;;;;;0.40;0.40;;;24.70;88.00;;;;;;5032191;28;20170;-70
2022/07/26 07:00:59;;;;;;;0.80;0.63;;;24.50;88.60;;;;;;5034088;28;20579;-70
2022/07/26 07:03:25;;;;;;;0.43;0.43;;;24.50;89.00;;;;;;5033414;28;20168;-71
2022/07/26 07:05:50;;;;;;;0.37;0.37;;;24.70;87.90;;;;;;5032402;28;20198;-71
2022/07/26 07:08:17;;;;;;;0.50;0.40;;;25.00;84.60;;;;;;5033687;28;20425;-70
2022/07/26 07:10:42;;;;;;;2.30;1.10;;;24.80;85.10;;;;;;5032412;28;20163;-71
2022/07/26 07:13:08;;;;;;;0.70;0.70;;;24.70;85.40;;;;;;5016087;28;20388;-70
2022/07/26 07:15:34;;;;;;;0.50;0.50;;;24.40;83.60;;;;;;5034294;28;20158;-70
2022/07/26 07:17:59;;;;;;;0.80;0.80;;;24.20;84.80;;;;;;5033381;28;20682;-70
2022/07/26 07:20:27;;;;;;;0.60;0.50;;;24.10;86.60;;;;;;5032550;28;20257;-70
2022/07/26 07:22:53;;;;;;;0.40;0.40;;;24.50;86.00;;;;;;5033596;28;20169;-71
2022/07/26 07:25:18;;;;;;;1.60;0.50;;;25.00;83.00;;;;;;5014792;28;20425;-71
2022/07/26 07:27:44;;;;;;;0.50;0.50;;;25.60;81.90;;;;;;5031732;28;20400;-70
2022/07/26 07:30:11;;;;;;;0.40;0.40;;;25.70;76.60;;;;;;5033063;28;20174;-70
2022/07/26 07:32:37;;;;;;;0.50;0.50;;;25.80;79.30;;;;;;5033787;28;20190;-71
2022/07/26 07:35:02;;;;;;;0.47;0.47;;;26.30;74.50;;;;;;5033935;28;20472;-71
2022/07/26 07:37:28;;;;;;;0.63;0.63;;;26.30;74.70;;;;;;5033732;28;20793;-71
2022/07/26 07:39:54;;;;;;;0.40;0.40;;;26.50;74.50;;;;;;5033646;28;20420;-71
2022/07/26 07:42:19;;;;;;;0.60;0.60;;;27.10;73.40;;;;;;5033720;28;20628;-71
2022/07/26 07:44:45;;;;;;;0.87;0.63;;;28.40;68.60;;;;;;5033657;28;20171;-70
2022/07/26 07:47:11;;;;;;;0.37;0.37;;;29.30;64.60;;;;;;5032023;28;20570;-71
2022/07/26 07:49:37;;;;;;;0.67;0.67;;;30.50;59.50;;;;;;5033511;28;20493;-72
2022/07/26 07:52:04;;;;;;;0.50;0.50;;;31.40;56.20;;;;;;5032322;28;20254;-71
2022/07/26 07:54:29;;;;;;;0.40;0.40;;;32.00;53.10;;;;;;5031076;28;20191;-70
2022/07/26 07:56:55;;;;;;;0.60;0.50;;;31.50;52.00;;;;;;5031962;28;21080;-71
2022/07/26 07:59:21;;;;;;;1.00;0.50;;;31.00;53.10;;;;;;5032603;28;20515;-71
2022/07/26 08:01:47;;;;;;;0.53;0.50;;;31.30;51.70;;;;;;5033348;28;20175;-71
2022/07/26 08:04:13;;;;;;;0.90;0.80;;;31.20;49.90;;;;;;5031474;28;20409;-71
2022/07/26 08:06:39;;;;;;;0.60;0.60;;;30.30;50.30;;;;;;5031585;28;20285;-70
2022/07/26 08:09:04;;;;;;;0.40;0.40;;;30.20;51.70;;;;;;5032837;28;20167;-72
2022/07/26 08:11:31;;;;;;;0.40;0.40;;;30.50;49.50;;;;;;5035524;28;20194;-72
2022/07/26 08:13:57;;;;;;;0.40;0.40;;;31.00;50.50;;;;;;5036775;28;20545;-71
2022/07/26 08:16:22;;;;;;;0.40;0.40;;;32.10;47.50;;;;;;5037434;28;20397;-71
2022/07/26 08:18:48;;;;;;;2.87;0.90;;;32.90;46.50;;;;;;5037356;28;20171;-72
2022/07/26 08:21:14;;;;;;;0.40;0.40;;;33.40;44.70;;;;;;5037413;28;20167;-72
2022/07/26 08:23:39;;;;;;;0.80;0.50;;;34.40;41.80;;;;;;5037067;28;20167;-72
2022/07/26 08:26:05;;;;;;;0.50;0.50;;;35.20;40.30;;;;;;5037386;28;20338;-71
2022/07/26 08:28:31;;;;;;;0.47;0.43;;;35.70;40.20;;;;;;5037222;28;20166;-72
2022/07/26 08:30:57;;;;;;;1.10;0.70;;;35.80;38.80;;;;;;5019415;28;20917;-71
2022/07/26 08:33:23;;;;;;;0.77;0.47;;;35.50;38.70;;;;;;5036897;28;20460;-72
2022/07/26 08:35:48;;;;;;;0.50;0.50;;;34.80;39.30;;;;;;5037237;28;20202;-71
2022/07/26 08:38:14;;;;;;;0.40;0.40;;;34.10;40.40;;;;;;5036788;28;20210;-71
2022/07/26 08:40:40;;;;;;;1.07;0.43;;;33.50;41.00;;;;;;5037149;28;20174;-72
2022/07/26 08:43:07;;;;;;;0.93;0.70;;;34.00;41.10;;;;;;5036719;28;20174;-72
2022/07/26 08:45:33;;;;;;;0.40;0.40;;;34.80;40.00;;;;;;5036890;28;20221;-72
2022/07/26 08:48:00;;;;;;;0.40;0.37;;;34.40;38.20;;;;;;5036822;28;20925;-73
2022/07/26 08:50:27;;;;;;;0.53;0.53;;;35.40;37.60;;;;;;5036979;28;20171;-72
2022/07/26 08:52:58;;;;;;;0.50;0.40;;;36.20;38.50;;;;;;5036625;28;20406;-72
2022/07/26 08:55:24;;;;;;;0.50;0.50;;;35.60;36.90;;;;;;5036894;28;20408;-71
2022/07/26 08:57:49;;;;;;;0.50;0.50;;;34.50;37.00;;;;;;5035062;28;20496;-72
2022/07/26 09:00:18;;;;;;;0.60;0.50;;;34.80;39.20;;;;;;5034236;28;20570;-70
2022/07/26 09:02:45;;;;;;;0.43;0.43;;;35.40;36.90;;;;;;5034699;28;20181;-73
2022/07/26 09:05:11;;;;;;;0.40;0.40;;;35.00;36.80;;;;;;5035436;28;20421;-72
2022/07/26 09:07:41;;;;;;;0.60;0.50;;;34.60;36.70;;;;;;5035211;28;20464;-72
2022/07/26 09:10:16;;;;;;;0.40;0.30;;;33.90;37.10;;;;;;5035433;28;20416;-71
2022/07/26 09:12:43;;;;;;;0.50;0.47;;;33.60;37.80;;;;;;5035396;28;20433;-70
2022/07/26 09:15:21;;;;;;;0.60;0.57;;;33.30;37.50;;;;;;5036743;28;20444;-69
2022/07/26 09:17:50;;;;;;;0.43;0.40;;;32.80;40.00;;;;;;5035285;28;20425;-71
2022/07/26 09:20:25;;;;;;;0.43;0.43;;;32.70;41.30;;;;;;5018450;28;20412;-71
2022/07/26 09:23:08;;;;;;;0.47;0.43;;;32.80;41.40;;;;;;5036273;28;20424;-72
2022/07/26 09:25:37;;;;;;;0.40;0.40;;;33.20;39.80;;;;;;5036693;28;20877;-71
2022/07/26 09:28:19;;;;;;;0.40;0.40;;;33.60;39.70;;;;;;5035985;28;20429;-71
2022/07/26 09:31:01;;;;;;;0.50;0.40;;;34.10;40.00;;;;;;5036646;28;20743;-71
2022/07/26 09:33:51;;;;;;;0.50;0.50;;;34.00;38.10;;;;;;5034867;28;20409;-70
2022/07/26 09:36:17;;;;;;;0.50;0.50;;;33.90;37.30;;;;;;5034945;28;20492;-71
2022/07/26 09:38:46;;;;;;;0.77;0.50;;;33.60;38.90;;;;;;5033823;28;20487;-71
2022/07/26 09:41:31;;;;;;;0.50;0.50;;;33.50;39.50;;;;;;5035086;28;20405;-71
2022/07/26 09:44:00;;;;;;;0.57;0.50;;;34.00;39.10;;;;;;5034920;28;20413;-71
2022/07/26 09:46:28;;;;;;;0.50;0.50;;;34.30;37.80;;;;;;5034854;28;20499;-71
2022/07/26 09:48:55;;;;;;;0.40;0.40;;;35.00;37.30;;;;;;5035077;28;20432;-71
2022/07/26 09:51:44;;;;;;;0.50;0.50;;;34.90;37.10;;;;;;5035538;28;20768;-70
2022/07/26 09:54:15;;;;;;;1.47;0.67;;;33.70;38.00;;;;;;5035540;28;20397;-71
2022/07/26 09:56:49;;;;;;;0.87;0.53;;;33.10;39.80;;;;;;5035598;28;20429;-71
2022/07/26 09:59:17;;;;;;;0.40;0.40;;;33.60;39.50;;;;;;5035699;28;20402;-71
2022/07/26 10:01:43;;;;;;;0.40;0.40;;;34.40;38.30;;;;;;5035636;28;20459;-71
2022/07/26 10:04:10;;;;;;;0.50;0.50;;;35.00;37.60;;;;;;5035210;28;20416;-71
2022/07/26 10:06:35;;;;;;;0.47;0.40;;;34.80;36.00;;;;;;5035192;28;20977;-70
2022/07/26 10:09:02;;;;;;;0.60;0.60;;;34.40;36.60;;;;;;5033035;28;20397;-71
2022/07/26 10:11:40;;;;;;;0.40;0.40;;;34.00;36.50;;;;;;5033874;28;20182;-70
2022/07/26 10:14:42;;;;;;;0.50;0.50;;;33.00;39.40;;;;;;5033726;28;20479;-71
2022/07/26 10:17:36;;;;;;;0.43;0.40;;;31.80;41.10;;;;;;5033319;28;20424;-71
2022/07/26 10:20:04;;;;;;;0.70;0.50;;;32.70;41.70;;;;;;5031413;28;20905;-71
2022/07/26 10:22:41;;;;;;;0.50;0.40;;;32.90;38.80;;;;;;5033429;28;20405;-71
2022/07/26 10:25:16;;;;;;;0.43;0.43;;;31.00;40.60;;;;;;5015172;28;20417;-71
2022/07/26 10:27:42;;;;;;;0.60;0.60;;;30.30;42.30;;;;;;5033852;28;20472;-71
2022/07/26 10:30:16;;;;;;;0.50;0.50;;;30.40;43.10;;;;;;5034877;28;20405;-71
2022/07/26 10:33:00;;;;;;;0.40;0.40;;;30.90;42.00;;;;;;5034309;28;20397;-71
2022/07/26 10:35:37;;;;;;;0.40;0.40;;;30.90;40.70;;;;;;5034985;28;20437;-71
2022/07/26 10:38:05;;;;;;;0.50;0.50;;;30.30;44.20;;;;;;5034802;28;20445;-71
2022/07/26 10:40:32;;;;;;;0.53;0.50;;;30.70;43.80;;;;;;5034866;28;20493;-71
2022/07/26 10:43:09;;;;;;;0.50;0.50;;;31.40;41.60;;;;;;5034579;28;20432;-71
2022/07/26 10:45:36;;;;;;;0.50;0.47;;;32.20;41.70;;;;;;5034771;28;20406;-71
2022/07/26 10:48:19;;;;;;;0.50;0.50;;;32.30;40.40;;;;;;5034465;28;20429;-70
2022/07/26 10:50:50;;;;;;;0.40;0.40;;;32.00;42.90;;;;;;5032786;28;20405;-70
2022/07/26 10:53:17;;;;;;;0.40;0.40;;;31.90;41.10;;;;;;5033315;28;20496;-71
2022/07/26 10:55:48;;;;;;;0.40;0.37;;;32.00;40.40;;;;;;5031963;28;20405;-71
2022/07/26 10:58:14;;;;;;;0.50;0.40;;;32.10;41.50;;;;;;5033216;28;20479;-71
2022/07/26 11:00:40;;;;;;;0.50;0.50;;;31.70;40.10;;;;;;5033331;28;20413;-70
2022/07/26 11:03:05;;;;;;;0.60;0.60;;;31.60;42.70;;;;;;5032783;28;20413;-70
2022/07/26 11:05:33;;;;;;;0.50;0.50;;;31.10;43.20;;;;;;5034197;28;20176;-71
2022/07/26 11:08:09;;;;;;;0.40;0.40;;;30.70;44.10;;;;;;5034177;28;20182;-70
2022/07/26 11:10:40;;;;;;;0.70;0.60;;;29.50;41.60;;;;;;5034220;28;20401;-70
2022/07/26 11:13:14;;;;;;;0.30;0.30;;;28.90;45.90;;;;;;5034619;28;20939;-70
2022/07/26 11:15:42;;;;;;;0.50;0.50;;;28.80;44.50;;;;;;5034421;28;20401;-71
2022/07/26 11:18:14;;;;;;;0.60;0.50;;;28.60;46.60;;;;;;5034679;28;20433;-71
2022/07/26 11:20:41;;;;;;;0.50;0.50;;;28.50;49.30;;;;;;5034657;28;20433;-70
2022/07/26 11:23:21;;;;;;;0.70;0.60;;;28.20;45.70;;;;;;5033914;28;20412;-70
2022/07/26 11:26:04;;;;;;;0.40;0.40;;;28.20;47.80;;;;;;5034446;28;20452;-70
2022/07/26 11:28:41;;;;;;;0.63;0.60;;;28.00;46.00;;;;;;5034391;28;20760;-70
2022/07/26 11:31:06;;;;;;;0.53;0.53;;;27.30;48.60;;;;;;5034515;28;20768;-70
2022/07/26 11:33:37;;;;;;;0.40;0.40;;;27.30;47.40;;;;;;5033769;28;20375;-70
2022/07/26 11:36:04;;;;;;;0.50;0.50;;;27.50;47.70;;;;;;5034377;28;20163;-70
2022/07/26 11:38:47;;;;;;;0.80;0.53;;;27.80;48.70;;;;;;5034036;28;20848;-71
2022/07/26 11:41:17;;;;;;;1.13;0.70;;;28.20;48.20;;;;;;5034136;28;20405;-70
2022/07/26 11:43:43;;;;;;;1.37;0.60;;;28.20;47.00;;;;;;5033504;28;20402;-70
2022/07/26 11:46:09;;;;;;;0.90;0.70;;;28.20;47.50;;;;;;5032602;28;20480;-70
2022/07/26 11:48:35;;;;;;;0.37;0.37;;;28.30;46.90;;;;;;5033805;28;20503;-70
2022/07/26 11:51:08;;;;;;;0.60;0.60;;;28.10;45.80;;;;;;5033890;28;20413;-70
2022/07/26 11:53:38;;;;;;;0.37;0.37;;;27.80;47.30;;;;;;5033354;28;20163;-70
2022/07/26 11:56:18;;;;;;;0.40;0.40;;;27.50;47.70;;;;;;5034151;28;20372;-70
2022/07/26 11:58:45;;;;;;;0.50;0.50;;;27.50;49.40;;;;;;5033619;28;20390;-71
2022/07/26 12:01:13;;;;;;;0.73;0.53;;;27.70;48.40;;;;;;5033695;28;20464;-70
2022/07/26 12:03:41;;;;;;;0.60;0.60;;;27.90;46.50;;;;;;5033702;28;20429;-70
2022/07/26 12:06:12;;;;;;;0.50;0.50;;;28.10;45.10;;;;;;5033902;28;20434;-70
2022/07/26 12:08:45;;;;;;;0.47;0.47;;;27.90;47.50;;;;;;5015473;28;20493;-70
2022/07/26 12:11:12;;;;;;;0.40;0.40;;;27.70;47.20;;;;;;5031743;28;20402;-70
2022/07/26 12:13:58;;;;;;;0.40;0.40;;;27.50;49.00;;;;;;5033346;28;20380;-70
2022/07/26 12:16:43;;;;;;;0.40;0.40;;;27.40;47.40;;;;;;5031797;28;20411;-70
2022/07/26 12:19:29;;;;;;;0.50;0.50;;;27.10;47.80;;;;;;5033140;28;20419;-70
2022/07/26 12:22:16;;;;;;;0.40;0.40;;;26.50;48.50;;;;;;5031530;28;20435;-71
2022/07/26 12:24:55;;;;;;;0.40;0.40;;;26.40;48.60;;;;;;5032965;28;20420;-70
2022/07/26 12:27:23;;;;;;;0.60;0.60;;;26.20;50.30;;;;;;5033303;28;20467;-69
2022/07/26 12:29:55;;;;;;;0.43;0.43;;;26.20;51.10;;;;;;5033165;28;20389;-70
2022/07/26 12:32:29;;;;;;;0.87;0.80;;;26.30;49.30;;;;;;5033348;28;20444;-69
2022/07/26 12:34:59;;;;;;;0.53;0.53;;;26.20;48.10;;;;;;5032995;28;20398;-70
2022/07/26 12:37:25;;;;;;;0.50;0.50;;;26.20;48.90;;;;;;5031415;28;20421;-70
2022/07/26 12:40:08;;;;;;;0.50;0.40;;;26.10;49.10;;;;;;5016030;28;20388;-70
2022/07/26 12:42:35;;;;;;;0.43;0.43;;;26.00;49.50;;;;;;5033018;28;20504;-70
2022/07/26 12:45:02;;;;;;;0.50;0.50;;;25.80;49.60;;;;;;5033287;28;20405;-70
2022/07/26 12:47:28;;;;;;;0.60;0.50;;;25.90;50.00;;;;;;5033350;28;20482;-71
2022/07/26 12:49:54;;;;;;;0.70;0.40;;;26.20;48.20;;;;;;5033315;28;20379;-69
2022/07/26 12:52:21;;;;;;;0.70;0.70;;;26.40;47.80;;;;;;5033340;28;20625;-70
2022/07/26 12:54:49;;;;;;;0.40;0.40;;;26.50;47.70;;;;;;5033076;28;20182;-70